地図

経路データ

SID SEASON NUMBER BASIN SUBBASIN NAME ISO_TIME NATURE LAT LON WMO_WIND WMO_PRES WMO_AGENCY TRACK_TYPE DIST2LAND LANDFALL IFLAG USA_AGENCY USA_ATCF_ID USA_LAT USA_LON USA_RECORD USA_STATUS USA_WIND USA_PRES USA_SSHS USA_R34_NE USA_R34_SE USA_R34_SW USA_R34_NW USA_R50_NE USA_R50_SE USA_R50_SW USA_R50_NW USA_R64_NE USA_R64_SE USA_R64_SW USA_R64_NW USA_POCI USA_ROCI USA_RMW USA_EYE TOKYO_LAT TOKYO_LON TOKYO_GRADE TOKYO_WIND TOKYO_PRES TOKYO_R50_DIR TOKYO_R50_LONG TOKYO_R50_SHORT TOKYO_R30_DIR TOKYO_R30_LONG TOKYO_R30_SHORT TOKYO_LAND CMA_LAT CMA_LON CMA_CAT CMA_WIND CMA_PRES HKO_LAT HKO_LON HKO_CAT HKO_WIND HKO_PRES NEWDELHI_LAT NEWDELHI_LON NEWDELHI_GRADE NEWDELHI_WIND NEWDELHI_PRES NEWDELHI_CI NEWDELHI_DP NEWDELHI_POCI REUNION_LAT REUNION_LON REUNION_TYPE REUNION_WIND REUNION_PRES REUNION_TNUM REUNION_CI REUNION_RMW REUNION_R34_NE REUNION_R34_SE REUNION_R34_SW REUNION_R34_NW REUNION_R50_NE REUNION_R50_SE REUNION_R50_SW REUNION_R50_NW REUNION_R64_NE REUNION_R64_SE REUNION_R64_SW REUNION_R64_NW BOM_LAT BOM_LON BOM_TYPE BOM_WIND BOM_PRES BOM_TNUM BOM_CI BOM_RMW BOM_R34_NE BOM_R34_SE BOM_R34_SW BOM_R34_NW BOM_R50_NE BOM_R50_SE BOM_R50_SW BOM_R50_NW BOM_R64_NE BOM_R64_SE BOM_R64_SW BOM_R64_NW BOM_ROCI BOM_POCI BOM_EYE BOM_POS_METHOD BOM_PRES_METHOD NADI_LAT NADI_LON NADI_CAT NADI_WIND NADI_PRES WELLINGTON_LAT WELLINGTON_LON WELLINGTON_WIND WELLINGTON_PRES DS824_LAT DS824_LON DS824_STAGE DS824_WIND DS824_PRES TD9636_LAT TD9636_LON TD9636_STAGE TD9636_WIND TD9636_PRES TD9635_LAT TD9635_LON TD9635_WIND TD9635_PRES TD9635_ROCI NEUMANN_LAT NEUMANN_LON NEUMANN_CLASS NEUMANN_WIND NEUMANN_PRES MLC_LAT MLC_LON MLC_CLASS MLC_WIND MLC_PRES USA_GUST BOM_GUST BOM_GUST_PER REUNION_GUST REUNION_GUST_PER USA_SEAHGT USA_SEARAD_NE USA_SEARAD_SE USA_SEARAD_SW USA_SEARAD_NW STORM_SPEED STORM_DIR
1963196N18250 1963 62 EP MM FLORENCE 1963-07-14 12:00:00 TS 18.4000 -109.700 75 hurdat_epa main 475 475 O________OO___ hurdat_epa EP021963 18.4000 -109.700 HU 75 1 18.4000 -109.700 TC 75 18.4000 -109.700 4 13 256
1963196N18250 1963 62 EP MM FLORENCE 1963-07-14 15:00:00 TS 18.2414 -110.354 main 527 527 P________PP___ EP021963 18.2305 -110.353 HU 75 1 18.2305 -110.353 TC 75 18.2852 -110.357 4 13 257
1963196N18250 1963 62 EP MM FLORENCE 1963-07-14 18:00:00 TS 18.1151 -111.002 75 hurdat_epa main 546 546 O________OP___ hurdat_epa EP021963 18.1000 -111.000 HU 75 1 18.1000 -111.000 TC 75 18.1754 -111.010 4 12 261
1963196N18250 1963 62 EP MM FLORENCE 1963-07-14 21:00:00 TS 18.0434 -111.646 main 572 572 P________PP___ EP021963 18.0347 -111.642 HU 75 1 18.0347 -111.642 TC 75 18.0779 -111.659 4 12 265
1963196N18250 1963 62 EP MM FLORENCE 1963-07-15 00:00:00 TS 18.0000 -112.300 75 hurdat_epa main 598 598 O________OO___ hurdat_epa EP021963 18.0000 -112.300 HU 75 1 18.0000 -112.300 TC 75 18.0000 -112.300 4 13 265
1963196N18250 1963 62 EP MM FLORENCE 1963-07-15 03:00:00 TS 17.9375 -112.976 main 640 640 P________PP___ EP021963 17.9347 -112.985 HU 75 1 17.9347 -112.985 TC 75 17.9486 -112.939 4 13 266
1963196N18250 1963 62 EP MM FLORENCE 1963-07-15 06:00:00 TS 17.9057 -113.682 75 hurdat_epa main 679 679 O________OP___ hurdat_epa EP021963 17.9000 -113.700 HU 75 1 17.9000 -113.700 TC 75 17.9287 -113.609 4 13 270
1963196N18250 1963 62 EP MM FLORENCE 1963-07-15 09:00:00 TS 17.9301 -114.376 main 723 723 P________PP___ EP021963 17.9265 -114.383 HU 75 1 17.9265 -114.383 TC 75 17.9447 -114.349 4 14 274
1963196N18250 1963 62 EP MM FLORENCE 1963-07-15 12:00:00 TS 18.0000 -115.200 75 hurdat_epa main 770 770 O________OO___ hurdat_epa EP021963 18.0000 -115.200 HU 75 1 18.0000 -115.200 TC 75 18.0000 -115.200 4 18 275
1963196N18250 1963 62 EP MM FLORENCE 1963-07-15 15:00:00 TS 18.0853 -116.298 main 847 847 P________PP___ EP021963 18.0854 -116.298 HU 75 1 18.0854 -116.298 TC 75 18.0850 -116.298 4 22 275
1963196N18250 1963 62 EP MM FLORENCE 1963-07-15 18:00:00 TS 18.2007 -117.499 75 hurdat_epa main 916 916 O________OP___ hurdat_epa EP021963 18.2000 -117.500 HU 75 1 18.2000 -117.500 TC 75 18.2034 -117.494 4 23 276
1963196N18250 1963 62 EP MM FLORENCE 1963-07-15 21:00:00 TS 18.3372 -118.685 main 988 987 P________PP___ EP021963 18.3354 -118.690 HU 75 1 18.3354 -118.690 TC 75 18.3445 -118.667 4 21 278
1963196N18250 1963 62 EP MM FLORENCE 1963-07-16 00:00:00 TS 18.5000 -119.700 75 hurdat_epa main 1046 1046 O________OO___ hurdat_epa EP021963 18.5000 -119.700 HU 75 1 18.5000 -119.700 TC 75 18.5000 -119.700 4 16 283
1963196N18250 1963 62 EP MM FLORENCE 1963-07-16 03:00:00 TS 18.6969 -120.348 main 1078 1078 P________PP___ EP021963 18.6988 -120.325 HU 75 1 18.6988 -120.325 TC 75 18.6893 -120.441 4 12 290
1963196N18250 1963 62 EP MM FLORENCE 1963-07-16 06:00:00 TS 18.8981 -120.846 75 hurdat_epa main 1105 1105 O________OP___ hurdat_epa EP021963 18.9000 -120.800 HU 75 1 18.9000 -120.800 TC 75 18.8904 -121.029 4 11 291
1963196N18250 1963 62 EP MM FLORENCE 1963-07-16 09:00:00 TS 19.0783 -121.426 main 1142 1142 P________PP___ EP021963 19.0799 -121.400 HU 75 1 19.0799 -121.400 TC 75 19.0715 -121.528 4 11 285
1963196N18250 1963 62 EP MM FLORENCE 1963-07-16 12:00:00 TS 19.2000 -122.000 75 hurdat_epa main 1183 1183 O________OO___ hurdat_epa EP021963 19.2000 -122.000 HU 75 1 19.2000 -122.000 TC 75 19.2000 -122.000 4 11 278
1963196N18250 1963 62 EP MM FLORENCE 1963-07-16 15:00:00 TS 19.2293 -122.555 main 1224 1224 P________PP___ EP021963 19.2298 -122.565 HU 75 1 19.2298 -122.565 TC 75 19.2271 -122.512 4 10 270
1963196N18250 1963 62 EP MM FLORENCE 1963-07-16 18:00:00 TS 19.2001 -123.083 75 hurdat_epa main 1257 1257 O________OP___ hurdat_epa EP021963 19.2000 -123.100 HU 75 1 19.2000 -123.100 TC 75 19.2006 -123.014 4 10 265
1963196N18250 1963 62 EP MM FLORENCE 1963-07-16 21:00:00 TS 19.1494 -123.569 main 1300 1300 P________PP___ EP021963 19.1495 -123.578 HU 75 1 19.1495 -123.578 TC 75 19.1489 -123.534 4 10 264
1963196N18250 1963 62 EP MM FLORENCE 1963-07-17 00:00:00 TS 19.1000 -124.100 75 hurdat_epa main 1335 1335 O________OO___ hurdat_epa EP021963 19.1000 -124.100 HU 75 1 19.1000 -124.100 TC 75 19.1000 -124.100 4 11 267
1963196N18250 1963 62 EP MM FLORENCE 1963-07-17 03:00:00 TS 19.0892 -124.763 main 1385 1385 P________PP___ EP021963 19.0925 -124.770 HU 75 1 19.0925 -124.770 TC 75 19.0757 -124.734 4 13 270
1963196N18250 1963 62 EP MM FLORENCE 1963-07-17 06:00:00 TS 19.0947 -125.485 75 hurdat_epa main 1437 1437 O________OP___ hurdat_epa EP021963 19.1000 -125.500 HU 75 1 19.1000 -125.500 TC 75 19.0733 -125.424 4 14 270
1963196N18250 1963 62 EP MM FLORENCE 1963-07-17 09:00:00 TS 19.0991 -126.199 main 1491 1491 P________PP___ EP021963 19.1029 -126.210 HU 75 1 19.1029 -126.210 TC 75 19.0841 -126.153 4 13 270
1963196N18250 1963 62 EP MM FLORENCE 1963-07-17 12:00:00 TS 19.1000 -126.900 75 hurdat_epa main 1546 O________OO___ hurdat_epa EP021963 19.1000 -126.900 HU 75 1 19.1000 -126.900 TC 75 19.1000 -126.900 4 13 270

IBTrACS Databaseについて

本データベースは、米国NOAAが公開する1842年以降の世界の熱帯低気圧のベストトラックデータアーカイブInternational Best Track Archive for Climate Stewardship (IBTrACS)を、ウェブで閲覧しやすい形式に変換したものです。

最終更新日:2021-12-08